Time;durP1;ratioP1;P1;durP2;ratioP2;P2;SDS_P1;SDS_P2;PMS_P1;PMS_P2;Temp;Humidity;BMP_temperature;BMP_pressure;BME280_temperature;BME280_humidity;BME280_pressure;Samples;Min_cycle;Max_cycle;Signal;HPM_P1;HPM_P2
2021/11/23 00:00:10;;;;;;;8.20;7.20;;;;;;;1.12;95.07;97636.84;5109162;28;20542;-66
2021/11/23 00:02:36;;;;;;;8.68;7.47;;;;;;;1.16;95.19;97643.38;5091692;28;20393;-67
2021/11/23 00:05:03;;;;;;;8.70;7.80;;;;;;;1.18;94.61;97643.19;5091450;28;20439;-67
2021/11/23 00:07:28;;;;;;;8.20;7.30;;;;;;;1.29;94.57;97648.16;5108860;28;20423;-67
2021/11/23 00:09:55;;;;;;;7.30;6.60;;;;;;;1.22;94.89;97653.09;5106604;28;20418;-67
2021/11/23 00:12:20;;;;;;;7.73;6.90;;;;;;;1.22;94.79;97653.09;5106098;28;20445;-67
2021/11/23 00:14:46;;;;;;;7.90;7.20;;;;;;;1.32;93.40;97653.03;5111643;28;20388;-67
2021/11/23 00:17:11;;;;;;;7.57;6.77;;;;;;;1.13;93.88;97653.97;5105740;28;20739;-67
2021/11/23 00:19:37;;;;;;;7.70;6.70;;;;;;;0.99;94.29;97640.75;5091814;28;20436;-67
2021/11/23 00:22:03;;;;;;;7.82;7.07;;;;;;;1.05;94.43;97648.72;5103444;28;20749;-67
2021/11/23 00:24:28;;;;;;;7.90;7.10;;;;;;;1.13;93.95;97651.38;5109323;28;20403;-67
2021/11/23 00:26:54;;;;;;;8.60;7.50;;;;;;;1.14;93.22;97652.19;5096677;28;20395;-66
2021/11/23 00:29:19;;;;;;;8.20;7.30;;;;;;;1.11;93.80;97661.06;5102543;28;20390;-66
2021/11/23 00:31:44;;;;;;;8.40;7.10;;;;;;;1.09;93.57;97659.56;5091524;28;20390;-67
2021/11/23 00:34:10;;;;;;;7.37;6.67;;;;;;;1.07;94.20;97651.16;5091217;28;20405;-67
2021/11/23 00:36:35;;;;;;;7.20;6.50;;;;;;;1.20;93.18;97659.34;5093636;28;20398;-67
2021/11/23 00:39:00;;;;;;;7.60;6.90;;;;;;;1.08;93.32;97656.19;5105106;28;20461;-67
2021/11/23 00:41:26;;;;;;;7.80;6.47;;;;;;;1.08;93.29;97647.63;5092037;28;20398;-66
2021/11/23 00:43:51;;;;;;;6.80;6.15;;;;;;;1.06;93.99;97654.72;5091432;28;20382;-66
2021/11/23 00:46:17;;;;;;;5.87;5.37;;;;;;;1.00;93.66;97653.53;5109626;28;20252;-66
2021/11/23 00:48:43;;;;;;;6.60;6.00;;;;;;;0.98;93.72;97652.03;5111666;28;20386;-66
2021/11/23 00:51:09;;;;;;;8.88;7.45;;;;;;;1.01;93.63;97657.69;5095653;28;20514;-66
2021/11/23 00:53:35;;;;;;;8.23;7.18;;;;;;;0.89;94.27;97664.03;5095333;28;20943;-66
2021/11/23 00:56:04;;;;;;;7.75;6.97;;;;;;;0.94;93.70;97661.84;5093881;28;20393;-66
2021/11/23 00:58:29;;;;;;;8.23;7.43;;;;;;;0.92;93.89;97662.94;5096262;28;20404;-66
2021/11/23 01:00:55;;;;;;;8.25;7.45;;;;;;;0.85;93.84;97667.84;5111213;28;20874;-66
2021/11/23 01:03:20;;;;;;;7.83;7.13;;;;;;;0.89;93.82;97664.03;5102594;28;20418;-66
2021/11/23 01:05:46;;;;;;;8.63;7.80;;;;;;;0.94;93.86;97658.44;5104251;28;20505;-67
2021/11/23 01:08:13;;;;;;;8.67;7.77;;;;;;;0.90;93.71;97665.66;5095143;28;20398;-67
2021/11/23 01:10:38;;;;;;;8.73;7.83;;;;;;;0.82;94.32;97661.22;5113367;28;20924;-66
2021/11/23 01:13:04;;;;;;;8.37;7.43;;;;;;;0.89;93.36;97664.03;5097196;28;20404;-65
2021/11/23 01:15:29;;;;;;;7.93;7.13;;;;;;;0.64;94.86;97657.78;5107287;28;20418;-65
2021/11/23 01:17:55;;;;;;;9.47;7.60;;;;;;;0.59;94.50;97661.75;5105969;28;20490;-65
2021/11/23 01:20:21;;;;;;;8.30;7.50;;;;;;;0.53;94.93;97668.28;5098539;28;20382;-66
2021/11/23 01:22:47;;;;;;;9.00;7.88;;;;;;;0.64;94.95;97659.53;5096185;28;20393;-66
2021/11/23 01:25:12;;;;;;;8.00;7.20;;;;;;;0.74;94.66;97668.03;5109922;28;20410;-65
2021/11/23 01:27:38;;;;;;;8.45;7.63;;;;;;;0.72;94.77;97664.81;5094822;28;20394;-66
2021/11/23 01:30:05;;;;;;;9.15;8.25;;;;;;;0.65;94.82;97672.31;5108094;28;20426;-66
2021/11/23 01:32:30;;;;;;;9.00;8.10;;;;;;;0.63;94.54;97669.03;5101864;28;20394;-65
2021/11/23 01:34:56;;;;;;;8.20;7.40;;;;;;;0.47;95.97;97671.41;5108386;28;20408;-66
2021/11/23 01:37:21;;;;;;;7.87;7.07;;;;;;;0.71;94.41;97673.50;5092705;28;20389;-66
2021/11/23 01:39:47;;;;;;;7.47;6.67;;;;;;;0.76;94.25;97681.63;5095819;28;20386;-65
2021/11/23 01:42:12;;;;;;;8.13;6.82;;;;;;;0.62;94.47;97677.72;5102491;28;20396;-65
2021/11/23 01:44:38;;;;;;;7.30;6.60;;;;;;;0.48;95.63;97682.56;5114242;28;20511;-66
2021/11/23 01:47:03;;;;;;;7.40;6.70;;;;;;;0.63;95.15;97681.13;5099439;28;20409;-66
2021/11/23 01:49:28;;;;;;;8.40;7.20;;;;;;;0.62;94.83;97674.34;5094587;28;20392;-66
2021/11/23 01:51:54;;;;;;;7.85;7.05;;;;;;;0.68;94.95;97677.16;5099525;28;20795;-66
2021/11/23 01:54:20;;;;;;;7.32;6.63;;;;;;;0.58;95.10;97673.00;5096276;28;20400;-66
2021/11/23 01:56:46;;;;;;;7.15;6.45;;;;;;;0.59;94.58;97677.22;5114512;28;20388;-66
2021/11/23 01:59:11;;;;;;;6.65;6.05;;;;;;;0.72;95.02;97682.88;5105817;28;20422;-66
2021/11/23 02:01:37;;;;;;;7.32;6.63;;;;;;;0.59;94.80;97675.44;5096280;28;20421;-66
2021/11/23 02:04:04;;;;;;;6.93;6.32;;;;;;;0.64;94.04;97675.03;5113997;28;20427;-66
2021/11/23 02:06:30;;;;;;;7.10;6.25;;;;;;;0.54;94.74;97684.56;5104884;28;20410;-66
2021/11/23 02:08:55;;;;;;;7.07;6.38;;;;;;;0.51;94.25;97683.06;5098912;28;20404;-66
2021/11/23 02:11:21;;;;;;;6.85;6.15;;;;;;;0.38;95.00;97682.59;5114129;28;20384;-66
2021/11/23 02:13:47;;;;;;;7.22;6.53;;;;;;;0.40;95.41;97684.06;5094406;28;20420;-66
2021/11/23 02:16:13;;;;;;;7.28;5.90;;;;;;;0.41;95.34;97675.38;5094169;28;20393;-66
2021/11/23 02:18:38;;;;;;;7.18;6.47;;;;;;;0.31;94.95;97676.38;5095293;28;20429;-66
2021/11/23 02:21:04;;;;;;;7.10;6.43;;;;;;;0.28;95.81;97672.28;5093888;28;20402;-66
2021/11/23 02:23:29;;;;;;;7.60;6.35;;;;;;;0.40;95.59;97680.66;5110378;28;20390;-66
2021/11/23 02:25:55;;;;;;;7.03;6.32;;;;;;;0.29;95.57;97671.34;5113732;28;20861;-66
2021/11/23 02:28:20;;;;;;;7.23;6.53;;;;;;;0.33;95.34;97671.91;5092163;28;20475;-66
2021/11/23 02:30:49;;;;;;;7.53;6.60;;;;;;;0.50;94.94;97668.56;5093762;28;20378;-66
2021/11/23 02:33:17;;;;;;;7.50;6.80;;;;;;;0.52;94.91;97671.81;5107753;28;20400;-66
2021/11/23 02:35:43;;;;;;;8.25;7.13;;;;;;;0.42;94.91;97668.47;5094422;28;20872;-66
2021/11/23 02:38:09;;;;;;;7.97;7.00;;;;;;;0.38;95.43;97670.50;5108919;28;20477;-66
2021/11/23 02:40:35;;;;;;;7.20;6.50;;;;;;;0.52;95.14;97679.53;5093595;28;20886;-66
2021/11/23 02:43:00;;;;;;;7.50;6.80;;;;;;;0.39;94.84;97682.44;5104578;28;20408;-66
2021/11/23 02:45:27;;;;;;;8.82;7.00;;;;;;;0.41;94.87;97677.97;5113060;28;20402;-66
2021/11/23 02:47:54;;;;;;;8.18;7.38;;;;;;;0.42;94.99;97689.09;5096631;28;20386;-66
2021/11/23 02:50:22;;;;;;;8.17;7.30;;;;;;;0.20;96.13;97677.34;5112634;28;20485;-66
2021/11/23 02:52:49;;;;;;;7.28;6.57;;;;;;;0.18;96.40;97681.81;5113146;28;20812;-66
2021/11/23 02:55:16;;;;;;;7.97;7.20;;;;;;;0.16;95.83;97688.91;5100322;28;20393;-66
2021/11/23 02:57:42;;;;;;;7.82;7.00;;;;;;;0.06;96.79;97684.72;5093327;28;20812;-66
2021/11/23 03:00:14;;;;;;;8.83;7.60;;;;;;;0.13;96.75;97685.75;5112991;28;20406;-66
2021/11/23 03:02:39;;;;;;;7.88;7.18;;;;;;;0.13;96.62;97696.88;5106539;28;20396;-66
2021/11/23 03:05:06;;;;;;;8.10;7.30;;;;;;;0.10;96.68;97686.88;5112505;28;20742;-66
2021/11/23 03:07:32;;;;;;;8.38;7.47;;;;;;;0.11;97.15;97685.94;5112855;28;20948;-66
2021/11/23 03:09:58;;;;;;;8.35;7.55;;;;;;;-0.17;97.78;97686.78;5111997;28;20400;-66
2021/11/23 03:12:25;;;;;;;8.05;7.25;;;;;;;-0.14;97.80;97682.16;5111295;28;20395;-66
2021/11/23 03:14:51;;;;;;;7.72;7.03;;;;;;;-0.19;98.38;97680.94;5111933;28;20941;-66
2021/11/23 03:17:17;;;;;;;7.87;7.07;;;;;;;-0.12;97.98;97676.88;5112546;28;20392;-66
2021/11/23 03:19:44;;;;;;;8.80;7.68;;;;;;;-0.08;97.61;97675.63;5112788;28;20427;-66
2021/11/23 03:22:11;;;;;;;8.87;7.80;;;;;;;-0.12;97.86;97682.03;5098722;28;20894;-66
2021/11/23 03:24:37;;;;;;;8.63;7.68;;;;;;;-0.09;97.53;97679.16;5092620;28;20735;-66
2021/11/23 03:27:04;;;;;;;8.10;7.30;;;;;;;-0.03;97.27;97682.00;5096320;28;20491;-66
2021/11/23 03:29:30;;;;;;;8.68;7.78;;;;;;;-0.12;97.70;97679.44;5094088;28;20441;-67
2021/11/23 03:31:55;;;;;;;9.05;7.90;;;;;;;-0.26;98.30;97679.84;5101104;28;20390;-66
2021/11/23 03:34:21;;;;;;;8.77;7.88;;;;;;;-0.19;98.36;97684.34;5092396;28;20863;-65
2021/11/23 03:36:48;;;;;;;8.63;7.68;;;;;;;-0.14;97.60;97687.31;5091828;28;20428;-66
2021/11/23 03:39:14;;;;;;;8.00;7.20;;;;;;;-0.09;97.38;97679.97;5092146;28;20482;-65
2021/11/23 03:41:39;;;;;;;9.23;8.30;;;;;;;-0.11;97.32;97676.72;5101005;28;20537;-65
2021/11/23 03:44:05;;;;;;;8.85;7.95;;;;;;;-0.17;97.51;97677.25;5100056;28;20502;-64
2021/11/23 03:46:31;;;;;;;9.05;8.13;;;;;;;-0.11;96.82;97684.44;5092434;28;20402;-64
2021/11/23 03:48:56;;;;;;;9.07;7.90;;;;;;;0.03;97.18;97679.81;5092060;28;20797;-64
2021/11/23 03:51:22;;;;;;;8.87;7.80;;;;;;;-0.09;96.92;97682.56;5097919;28;20601;-65
2021/11/23 03:53:47;;;;;;;8.80;7.90;;;;;;;-0.09;96.79;97681.75;5111984;28;20860;-65
2021/11/23 03:56:13;;;;;;;8.90;8.00;;;;;;;-0.20;97.17;97684.47;5112012;28;20416;-64
2021/11/23 03:58:40;;;;;;;8.52;7.63;;;;;;;-0.15;97.18;97682.28;5112362;28;20423;-64
2021/11/23 04:01:06;;;;;;;8.48;7.60;;;;;;;-0.25;97.69;97684.06;5106711;28;20907;-65
2021/11/23 04:03:32;;;;;;;8.73;7.72;;;;;;;-0.29;97.68;97686.09;5091723;28;20492;-64
2021/11/23 04:05:58;;;;;;;8.17;7.37;;;;;;;-0.42;98.53;97683.81;5091997;28;20417;-64
2021/11/23 04:08:24;;;;;;;9.05;7.80;;;;;;;-0.33;98.44;97676.19;5105472;28;20394;-65
2021/11/23 04:10:49;;;;;;;9.85;8.25;;;;;;;-0.30;97.98;97675.94;5110742;28;20392;-64
2021/11/23 04:13:17;;;;;;;9.63;8.13;;;;;;;-0.52;98.66;97669.31;5091663;28;20394;-64
2021/11/23 04:15:42;;;;;;;9.70;8.70;;;;;;;-0.52;98.98;97670.13;5093889;28;20887;-64
2021/11/23 04:18:08;;;;;;;9.30;8.33;;;;;;;-0.59;99.69;97671.59;5101061;28;20382;-64
2021/11/23 04:20:34;;;;;;;9.13;8.10;;;;;;;-0.58;99.71;97675.81;5091847;28;20413;-65
2021/11/23 04:22:59;;;;;;;9.93;7.90;;;;;;;-0.52;99.59;97675.28;5114286;28;20841;-64
2021/11/23 04:25:25;;;;;;;9.40;7.80;;;;;;;-0.46;98.83;97674.72;5116051;28;20452;-64
2021/11/23 04:27:52;;;;;;;9.45;8.45;;;;;;;-0.45;97.97;97675.53;5100657;28;20389;-64
2021/11/23 04:30:18;;;;;;;9.38;7.97;;;;;;;-0.48;98.75;97668.91;5094697;28;20931;-65
2021/11/23 04:32:43;;;;;;;8.95;7.63;;;;;;;-0.50;98.80;97670.78;5094167;28;20401;-65
2021/11/23 04:35:09;;;;;;;9.87;7.83;;;;;;;-0.58;99.17;97669.84;5095255;28;20409;-66
2021/11/23 04:37:35;;;;;;;9.37;8.23;;;;;;;-0.47;98.94;97675.69;5104989;28;20384;-66
2021/11/23 04:40:03;;;;;;;9.48;8.43;;;;;;;-0.61;99.41;97675.25;5115868;28;20400;-66
2021/11/23 04:42:28;;;;;;;9.68;8.70;;;;;;;-0.76;100.00;97679.97;5115600;28;20813;-66
2021/11/23 04:44:54;;;;;;;10.80;8.90;;;;;;;-0.75;100.00;97680.81;5111978;28;20413;-65
2021/11/23 04:47:19;;;;;;;10.67;9.57;;;;;;;-0.68;100.00;97677.56;5096907;28;20464;-65
2021/11/23 04:49:45;;;;;;;10.67;9.17;;;;;;;-0.81;100.00;97682.16;5096929;28;20385;-66
2021/11/23 04:52:10;;;;;;;10.00;8.73;;;;;;;-0.82;100.00;97680.50;5115662;28;20399;-65
2021/11/23 04:54:36;;;;;;;11.38;9.32;;;;;;;-0.96;100.00;97679.16;5115053;28;20372;-65
2021/11/23 04:57:02;;;;;;;11.35;9.35;;;;;;;-0.88;100.00;97678.47;5111442;28;20747;-65
2021/11/23 04:59:27;;;;;;;12.27;10.00;;;;;;;-0.88;100.00;97676.72;5095558;28;20390;-65
2021/11/23 05:01:52;;;;;;;13.37;10.27;;;;;;;-0.91;100.00;97681.31;5095315;28;20398;-65
2021/11/23 05:04:18;;;;;;;13.43;10.37;;;;;;;-0.85;100.00;97679.03;5093610;28;20480;-65
2021/11/23 05:06:43;;;;;;;12.37;9.70;;;;;;;-0.76;100.00;97697.19;5096485;28;20516;-66
2021/11/23 05:09:09;;;;;;;12.40;9.43;;;;;;;-0.83;100.00;97699.47;5115753;28;20392;-65
2021/11/23 05:11:36;;;;;;;12.50;9.23;;;;;;;-0.81;100.00;97689.88;5115531;28;20407;-66
2021/11/23 05:14:02;;;;;;;10.55;9.45;;;;;;;-0.74;100.00;97700.44;5093571;28;20405;-65
2021/11/23 05:16:27;;;;;;;11.97;10.20;;;;;;;-0.70;100.00;97700.03;5095036;28;20386;-66
2021/11/23 05:18:53;;;;;;;10.45;9.35;;;;;;;-0.78;100.00;97699.09;5112838;28;20401;-66
2021/11/23 05:21:18;;;;;;;10.83;9.43;;;;;;;-0.87;100.00;97711.78;5115344;28;20400;-66
2021/11/23 05:23:43;;;;;;;11.07;9.63;;;;;;;-1.05;100.00;97700.50;5114882;28;20416;-66
2021/11/23 05:26:09;;;;;;;12.77;9.40;;;;;;;-0.80;100.00;97713.84;5096779;28;20400;-66
2021/11/23 05:28:34;;;;;;;11.60;9.95;;;;;;;-0.82;100.00;97705.44;5097434;28;20389;-66
2021/11/23 05:31:00;;;;;;;13.33;9.83;;;;;;;-0.95;100.00;97705.69;5094969;28;20463;-66
2021/11/23 05:33:25;;;;;;;12.73;10.07;;;;;;;-0.96;100.00;97712.59;5095076;28;20403;-66
2021/11/23 05:35:51;;;;;;;11.77;9.60;;;;;;;-1.04;100.00;97712.44;5095914;28;20400;-65
2021/11/23 05:38:19;;;;;;;11.70;9.80;;;;;;;-0.94;100.00;97710.69;5099266;28;20397;-65
2021/11/23 05:40:45;;;;;;;11.23;9.88;;;;;;;-1.08;100.00;97708.50;5094309;28;20424;-66
2021/11/23 05:43:12;;;;;;;11.50;10.07;;;;;;;-1.18;100.00;97709.41;5106494;28;20389;-66
2021/11/23 05:45:38;;;;;;;13.15;10.07;;;;;;;-1.11;100.00;97713.06;5094545;28;20414;-66
2021/11/23 05:48:04;;;;;;;12.75;10.20;;;;;;;-1.18;100.00;97714.56;5094423;28;20409;-67
2021/11/23 05:50:29;;;;;;;12.75;10.30;;;;;;;-1.21;100.00;97710.47;5093981;28;20398;-66
2021/11/23 05:52:54;;;;;;;11.77;9.95;;;;;;;-1.09;100.00;97714.59;5114386;28;20388;-66
2021/11/23 05:55:20;;;;;;;11.70;9.63;;;;;;;-1.10;100.00;97723.25;5114482;28;20400;-66
2021/11/23 05:57:45;;;;;;;12.30;9.87;;;;;;;-1.00;100.00;97712.97;5114622;28;20509;-66
2021/11/23 06:00:11;;;;;;;13.10;10.52;;;;;;;-1.12;100.00;97714.84;5096094;28;20553;-65
2021/11/23 06:02:36;;;;;;;11.23;9.93;;;;;;;-1.04;100.00;97714.19;5098039;28;20924;-66
2021/11/23 06:05:03;;;;;;;12.38;9.80;;;;;;;-1.14;100.00;97721.88;5092176;28;20409;-66
2021/11/23 06:07:28;;;;;;;10.65;8.75;;;;;;;-1.20;100.00;97719.81;5094408;28;20386;-66
2021/11/23 06:09:54;;;;;;;10.57;9.47;;;;;;;-1.13;100.00;97723.50;5114637;28;20403;-66
2021/11/23 06:12:19;;;;;;;12.63;9.90;;;;;;;-0.72;100.00;97725.09;5092605;28;20385;-66
2021/11/23 06:14:45;;;;;;;13.10;10.20;;;;;;;-0.76;99.43;97721.16;5101829;28;20869;-66
2021/11/23 06:17:12;;;;;;;12.48;10.50;;;;;;;-0.88;100.00;97717.88;5095191;28;20396;-66
2021/11/23 06:19:38;;;;;;;12.73;9.95;;;;;;;-1.01;100.00;97708.78;5113692;28;20384;-66
2021/11/23 06:22:05;;;;;;;14.43;9.63;;;;;;;-1.07;100.00;97720.41;5107296;28;20825;-66
2021/11/23 06:24:31;;;;;;;11.65;9.93;;;;;;;-0.99;100.00;97723.13;5099159;28;20395;-66
2021/11/23 06:26:56;;;;;;;11.50;10.27;;;;;;;-0.91;100.00;97727.63;5114011;28;20384;-66
2021/11/23 06:29:21;;;;;;;12.43;10.17;;;;;;;-1.02;100.00;97731.13;5101324;28;20421;-66
2021/11/23 06:31:47;;;;;;;12.30;9.43;;;;;;;-1.08;100.00;97729.06;5093325;28;20382;-66
2021/11/23 06:34:12;;;;;;;10.88;9.63;;;;;;;-1.03;100.00;97731.25;5093496;28;20390;-66
2021/11/23 06:36:38;;;;;;;11.63;9.60;;;;;;;-1.04;100.00;97738.16;5093356;28;20743;-67
2021/11/23 06:39:04;;;;;;;11.97;9.90;;;;;;;-1.04;100.00;97748.44;5102820;28;20389;-66
2021/11/23 06:41:31;;;;;;;12.98;10.13;;;;;;;-0.86;100.00;97744.31;5108159;28;20481;-67
2021/11/23 06:44:01;;;;;;;11.83;9.80;;;;;;;-0.74;100.00;97750.16;5091961;28;20425;-66
2021/11/23 06:46:27;;;;;;;11.13;9.45;;;;;;;-1.01;100.00;97758.50;5113702;28;20404;-66
2021/11/23 06:48:52;;;;;;;12.73;10.63;;;;;;;-0.93;100.00;97763.78;5113623;28;20380;-67
2021/11/23 06:51:17;;;;;;;13.77;10.83;;;;;;;-0.98;100.00;97765.13;5104745;28;20393;-66
2021/11/23 06:53:43;;;;;;;14.57;11.55;;;;;;;-0.90;100.00;97768.69;5113516;28;20400;-66
2021/11/23 06:56:08;;;;;;;13.13;10.33;;;;;;;-0.94;100.00;97775.00;5113494;28;20393;-66
2021/11/23 06:58:33;;;;;;;13.07;10.90;;;;;;;-1.00;100.00;97777.28;5112602;28;20779;-65
2021/11/23 07:00:59;;;;;;;13.55;11.50;;;;;;;-0.89;100.00;97780.56;5108898;28;20414;-65
2021/11/23 07:03:24;;;;;;;13.70;11.47;;;;;;;-0.96;100.00;97781.25;5093159;28;20397;-66
2021/11/23 07:05:50;;;;;;;14.53;10.93;;;;;;;-0.70;100.00;97776.44;5092213;28;20418;-66
2021/11/23 07:08:16;;;;;;;12.80;10.80;;;;;;;-0.78;100.00;97781.44;5091777;28;20463;-67
2021/11/23 07:10:42;;;;;;;12.77;10.60;;;;;;;-0.63;99.97;97786.09;5092370;28;20534;-67
2021/11/23 07:13:08;;;;;;;13.25;10.82;;;;;;;-0.74;100.00;97787.94;5092491;28;20394;-67
2021/11/23 07:15:33;;;;;;;15.10;11.30;;;;;;;-0.80;100.00;97783.31;5092490;28;20477;-67
2021/11/23 07:17:59;;;;;;;13.52;10.80;;;;;;;-0.70;99.66;97786.72;5094656;28;20420;-66
2021/11/23 07:20:24;;;;;;;14.53;10.90;;;;;;;-0.70;99.69;97797.84;5112812;28;20857;-68
2021/11/23 07:22:50;;;;;;;13.00;10.87;;;;;;;-0.43;98.65;97797.22;5095760;28;20386;-68
2021/11/23 07:25:15;;;;;;;15.37;11.97;;;;;;;-0.43;98.40;97794.66;5112295;28;20876;-69
2021/11/23 07:27:42;;;;;;;12.95;10.73;;;;;;;-0.43;97.60;97792.88;5090319;28;20487;-67
2021/11/23 07:30:09;;;;;;;11.32;9.90;;;;;;;-0.45;97.70;97796.56;5104174;28;20484;-68
2021/11/23 07:32:35;;;;;;;11.07;9.48;;;;;;;-0.23;96.82;97798.09;5112394;28;20399;-67
2021/11/23 07:35:01;;;;;;;13.35;9.70;;;;;;;-0.14;96.46;97802.41;5111723;28;20408;-69
2021/11/23 07:37:29;;;;;;;10.45;9.32;;;;;;;-0.10;95.65;97799.44;5106824;28;20742;-68
2021/11/23 07:39:55;;;;;;;9.90;8.45;;;;;;;-0.25;96.56;97805.13;5101584;28;20392;-67
2021/11/23 07:42:20;;;;;;;10.03;8.93;;;;;;;0.08;94.50;97807.31;5093584;28;20391;-68
2021/11/23 07:44:46;;;;;;;9.70;8.05;;;;;;;-0.05;94.24;97805.00;5107878;28;20372;-69
2021/11/23 07:47:11;;;;;;;9.60;8.20;;;;;;;-0.20;95.81;97800.38;5090436;28;20382;-68
2021/11/23 07:49:37;;;;;;;9.30;8.30;;;;;;;0.04;94.25;97803.38;5092164;28;20382;-68
2021/11/23 07:52:02;;;;;;;10.50;8.70;;;;;;;0.15;93.15;97807.59;5091950;28;20390;-69
2021/11/23 07:54:28;;;;;;;9.50;8.50;;;;;;;0.15;93.48;97802.44;5098195;28;20412;-69
2021/11/23 07:56:53;;;;;;;11.23;9.50;;;;;;;0.28;93.46;97814.06;5108075;28;20921;-68
2021/11/23 07:59:18;;;;;;;11.47;9.83;;;;;;;0.26;93.59;97808.25;5092031;28;20386;-68
2021/11/23 08:01:44;;;;;;;11.13;9.60;;;;;;;0.46;93.37;97821.94;5076666;28;20780;-68
2021/11/23 08:04:10;;;;;;;11.25;9.32;;;;;;;0.51;91.77;97819.75;5090193;28;20426;-68
2021/11/23 08:06:35;;;;;;;12.17;9.73;;;;;;;0.54;92.19;97813.50;5091392;28;20503;-68
2021/11/23 08:09:01;;;;;;;12.80;9.65;;;;;;;0.16;92.98;97817.75;5091970;28;20405;-69
2021/11/23 08:11:26;;;;;;;10.47;9.23;;;;;;;0.04;93.48;97818.03;5100954;28;20380;-69
2021/11/23 08:13:52;;;;;;;11.50;8.43;;;;;;;0.13;93.76;97814.63;5110310;28;20383;-68
2021/11/23 08:16:17;;;;;;;11.57;8.90;;;;;;;0.25;93.50;97818.69;5091982;28;20390;-69
2021/11/23 08:18:42;;;;;;;9.85;8.63;;;;;;;0.34;92.76;97823.84;5094132;28;20708;-69
2021/11/23 08:21:08;;;;;;;10.80;8.97;;;;;;;0.30;92.72;97832.81;5091770;28;20382;-69
2021/11/23 08:23:33;;;;;;;9.70;8.70;;;;;;;0.15;93.41;97826.44;5091077;28;20384;-69
2021/11/23 08:25:59;;;;;;;11.30;9.80;;;;;;;0.22;93.28;97827.53;5091680;28;20402;-69
2021/11/23 08:28:26;;;;;;;12.68;9.95;;;;;;;0.33;93.18;97832.56;5091490;28;20835;-69
2021/11/23 08:30:54;;;;;;;12.68;10.32;;;;;;;0.46;92.88;97831.44;5091820;28;20401;-69
2021/11/23 08:33:19;;;;;;;13.63;10.48;;;;;;;0.59;92.48;97832.78;5093736;28;20446;-69
2021/11/23 08:35:45;;;;;;;11.18;9.80;;;;;;;0.58;91.83;97835.50;5103456;28;20393;-68
2021/11/23 08:38:11;;;;;;;13.17;9.87;;;;;;;0.73;91.66;97836.69;5111865;28;21049;-69
2021/11/23 08:40:38;;;;;;;12.67;9.63;;;;;;;0.84;90.61;97844.25;5111845;28;20748;-69
2021/11/23 08:43:05;;;;;;;12.18;9.50;;;;;;;0.83;90.84;97840.88;5110790;28;20395;-69
2021/11/23 08:45:30;;;;;;;11.80;9.33;;;;;;;0.76;90.49;97837.22;5103030;28;20438;-69
2021/11/23 08:47:55;;;;;;;9.80;8.70;;;;;;;0.73;90.08;97841.84;5091781;28;20720;-69
2021/11/23 08:50:22;;;;;;;9.90;8.73;;;;;;;0.60;90.36;97838.75;5104716;28;20390;-69
2021/11/23 08:52:47;;;;;;;9.10;8.20;;;;;;;0.74;89.80;97841.72;5098890;28;20412;-69
2021/11/23 08:55:12;;;;;;;9.07;8.17;;;;;;;0.73;89.91;97831.50;5096309;28;20819;-69
2021/11/23 08:57:40;;;;;;;9.57;7.90;;;;;;;0.72;89.04;97830.72;5089858;28;20941;-69
2021/11/23 09:00:19;;;;;;;9.07;8.10;;;;;;;0.79;88.86;97839.53;5091230;28;20841;-69
2021/11/23 09:02:49;;;;;;;9.48;8.48;;;;;;;0.90;88.69;97835.13;5092787;28;20401;-69
2021/11/23 09:05:16;;;;;;;10.20;8.68;;;;;;;0.73;89.22;97826.34;5103334;28;20427;-69
2021/11/23 09:07:43;;;;;;;10.15;8.48;;;;;;;0.92;89.06;97836.66;5113012;28;20384;-69
2021/11/23 09:10:15;;;;;;;10.30;8.70;;;;;;;1.03;87.78;97833.91;5101343;28;20382;-69
2021/11/23 09:12:40;;;;;;;9.73;8.45;;;;;;;0.91;87.62;97835.00;5112980;28;20411;-69
2021/11/23 09:15:06;;;;;;;10.15;8.30;;;;;;;0.85;87.36;97840.72;5109703;28;20779;-69
2021/11/23 09:17:32;;;;;;;9.93;8.18;;;;;;;0.82;88.88;97838.44;5096056;28;20390;-69
2021/11/23 09:19:57;;;;;;;9.50;8.60;;;;;;;0.99;88.74;97840.28;5095360;28;20881;-69
2021/11/23 09:22:22;;;;;;;9.27;7.63;;;;;;;0.83;87.90;97846.06;5084499;28;20418;-69
2021/11/23 09:24:48;;;;;;;9.82;8.20;;;;;;;0.89;88.00;97849.03;5115062;28;20384;-69
2021/11/23 09:27:13;;;;;;;9.30;8.07;;;;;;;1.23;87.66;97848.34;5101773;28;20854;-69
2021/11/23 09:29:40;;;;;;;9.20;7.93;;;;;;;1.13;87.11;97852.75;5101904;28;20397;-69
2021/11/23 09:32:07;;;;;;;9.20;7.57;;;;;;;1.49;86.33;97847.72;5096287;28;20896;-70
2021/11/23 09:34:33;;;;;;;9.60;8.40;;;;;;;1.49;85.85;97848.53;5110132;28;20482;-68
2021/11/23 09:36:58;;;;;;;9.70;8.70;;;;;;;1.79;85.01;97851.75;5095829;28;20844;-70
2021/11/23 09:39:23;;;;;;;9.83;8.83;;;;;;;1.44;85.86;97855.91;5104109;28;20877;-69
2021/11/23 09:41:49;;;;;;;10.95;8.88;;;;;;;1.50;86.68;97849.34;5099478;28;20396;-69
2021/11/23 09:44:15;;;;;;;9.80;8.77;;;;;;;1.36;85.95;97857.53;5086871;28;20457;-69
2021/11/23 09:46:40;;;;;;;9.63;8.52;;;;;;;1.40;85.97;97857.13;5094502;28;20414;-69
2021/11/23 09:49:08;;;;;;;9.97;8.90;;;;;;;1.31;86.93;97854.59;5094729;28;20418;-69
2021/11/23 09:51:35;;;;;;;10.60;9.27;;;;;;;1.10;88.33;97853.03;5103253;28;20479;-69
2021/11/23 09:54:04;;;;;;;9.73;8.73;;;;;;;1.30;87.87;97856.34;5114473;28;20385;-69
2021/11/23 09:56:31;;;;;;;10.27;9.05;;;;;;;1.27;87.98;97851.47;5114444;28;20475;-69
2021/11/23 09:58:57;;;;;;;12.70;9.50;;;;;;;1.27;87.38;97854.06;5114340;28;20869;-69
2021/11/23 10:01:26;;;;;;;11.07;9.30;;;;;;;1.34;87.65;97856.91;5107465;28;20418;-69
2021/11/23 10:03:53;;;;;;;11.93;9.50;;;;;;;1.40;87.27;97858.88;5094565;28;20846;-69
2021/11/23 10:06:22;;;;;;;9.32;8.27;;;;;;;1.49;85.88;97858.03;5098046;28;20416;-69
2021/11/23 10:08:50;;;;;;;11.38;8.20;;;;;;;1.57;85.00;97848.59;5095738;28;20457;-70
2021/11/23 10:11:22;;;;;;;11.18;8.27;;;;;;;1.54;85.51;97841.16;5112479;28;20884;-69
2021/11/23 10:13:55;;;;;;;8.75;7.85;;;;;;;1.78;85.27;97845.78;5113781;28;20480;-69
2021/11/23 10:16:21;;;;;;;8.27;7.47;;;;;;;2.04;81.54;97841.53;5109735;28;20870;-69
2021/11/23 10:18:50;;;;;;;8.70;7.80;;;;;;;1.86;82.72;97845.88;5101319;28;20384;-70
2021/11/23 10:21:18;;;;;;;8.73;7.90;;;;;;;2.05;82.93;97843.16;5092651;28;20754;-70
2021/11/23 10:23:47;;;;;;;9.38;7.70;;;;;;;2.16;81.69;97836.13;5091947;28;20400;-70
2021/11/23 10:26:14;;;;;;;9.77;7.90;;;;;;;2.08;82.95;97832.50;5095928;28;20447;-69
2021/11/23 10:28:53;;;;;;;7.93;7.13;;;;;;;2.13;81.62;97831.25;5113560;28;20954;-70
2021/11/23 10:31:20;;;;;;;7.35;6.65;;;;;;;2.04;80.94;97828.59;5102615;28;20406;-69
2021/11/23 10:33:45;;;;;;;7.03;6.15;;;;;;;1.79;81.27;97838.81;5091972;28;20455;-66
2021/11/23 10:36:16;;;;;;;8.13;6.47;;;;;;;2.02;83.23;97827.09;5077137;28;20402;-69
2021/11/23 10:38:42;;;;;;;7.88;5.95;;;;;;;2.17;80.67;97823.06;5060108;28;20455;-69
2021/11/23 10:41:11;;;;;;;7.80;6.18;;;;;;;2.15;80.58;97808.66;5094084;28;20485;-69
2021/11/23 10:43:39;;;;;;;6.57;5.97;;;;;;;2.30;80.69;97807.97;5097031;28;20428;-69
2021/11/23 10:46:13;;;;;;;7.05;6.28;;;;;;;2.71;78.95;97808.28;5113551;28;20415;-69
2021/11/23 10:48:39;;;;;;;7.70;6.47;;;;;;;2.86;77.53;97804.16;5101181;28;20401;-69
2021/11/23 10:51:12;;;;;;;7.05;6.35;;;;;;;2.70;78.07;97804.88;5095442;28;20417;-70
2021/11/23 10:53:42;;;;;;;6.80;6.13;;;;;;;2.72;78.31;97802.16;5091305;28;20728;-69
2021/11/23 10:56:16;;;;;;;7.45;6.25;;;;;;;2.74;78.42;97803.59;5100298;28;20423;-69
2021/11/23 10:58:44;;;;;;;6.72;6.03;;;;;;;2.89;77.34;97809.84;5113248;28;20429;-69
2021/11/23 11:01:10;;;;;;;7.05;5.90;;;;;;;2.88;77.69;97803.06;5097910;28;20465;-69
2021/11/23 11:03:37;;;;;;;6.93;5.80;;;;;;;3.17;75.50;97804.50;5094313;28;20732;-69
2021/11/23 11:06:04;;;;;;;6.23;5.63;;;;;;;3.04;76.12;97801.50;5106701;28;20898;-69
2021/11/23 11:08:39;;;;;;;6.82;6.05;;;;;;;3.10;75.81;97796.53;5092955;28;20464;-69
2021/11/23 11:11:08;;;;;;;6.53;5.70;;;;;;;3.14;75.71;97797.03;5093722;28;20394;-69
2021/11/23 11:13:35;;;;;;;6.80;6.10;;;;;;;3.14;75.71;97791.84;5101177;28;20761;-69
2021/11/23 11:16:01;;;;;;;8.23;5.38;;;;;;;3.27;75.47;97794.81;5100473;28;20394;-69
2021/11/23 11:18:27;;;;;;;6.18;5.57;;;;;;;3.58;74.69;97787.31;5092678;28;20442;-70
2021/11/23 11:21:01;;;;;;;6.37;5.77;;;;;;;3.45;74.24;97802.50;5111137;28;20390;-70
2021/11/23 11:23:28;;;;;;;6.33;5.67;;;;;;;3.51;74.26;97787.13;5112784;28;20505;-71
2021/11/23 11:29:25;;;;;;;5.38;4.88;;;;;;;3.48;73.45;97776.28;5109234;28;20476;-70